createdAt,value
2022-11-25T00:01:05.624Z,0.92
2022-11-25T00:03:32.161Z,0.92
2022-11-25T00:06:07.344Z,0.94
2022-11-25T00:08:33.759Z,0.98
2022-11-25T00:11:03.585Z,0.96
2022-11-25T00:13:30.009Z,0.98
2022-11-25T00:15:56.572Z,0.94
2022-11-25T00:18:23.060Z,0.95
2022-11-25T00:20:49.498Z,0.93
2022-11-25T00:23:15.901Z,0.94
2022-11-25T00:25:42.340Z,0.95
2022-11-25T00:28:08.812Z,0.97
2022-11-25T00:30:36.098Z,0.99
2022-11-25T00:33:03.215Z,0.99
2022-11-25T00:35:29.727Z,0.96
2022-11-25T00:37:56.117Z,0.95
2022-11-25T00:40:22.542Z,0.97
2022-11-25T00:43:07.602Z,1.14
2022-11-25T00:45:34.060Z,1.09
2022-11-25T00:48:00.492Z,1.00
2022-11-25T00:50:26.938Z,0.99
2022-11-25T00:52:53.344Z,1.00
2022-11-25T00:55:19.755Z,1.02
2022-11-25T00:57:46.336Z,1.02
2022-11-25T01:00:13.016Z,0.96
2022-11-25T01:02:39.992Z,0.94
2022-11-25T01:05:06.774Z,0.91
2022-11-25T01:07:33.254Z,0.94
2022-11-25T01:09:59.839Z,0.93
2022-11-25T01:12:26.209Z,1.00
2022-11-25T01:14:52.610Z,1.17
2022-11-25T01:17:18.991Z,1.12
2022-11-25T01:19:45.716Z,1.07
2022-11-25T01:22:12.112Z,1.05
2022-11-25T01:24:38.754Z,1.03
2022-11-25T01:27:05.376Z,0.98
2022-11-25T01:29:31.844Z,0.99
2022-11-25T01:31:58.332Z,0.99
2022-11-25T01:34:26.416Z,0.99
2022-11-25T01:36:52.982Z,1.01
2022-11-25T01:39:21.122Z,1.02
2022-11-25T01:41:47.949Z,1.09
2022-11-25T01:44:15.990Z,1.20
2022-11-25T01:46:42.336Z,1.16
2022-11-25T01:49:12.713Z,1.09
2022-11-25T01:51:52.282Z,1.03
2022-11-25T01:54:22.120Z,1.06
2022-11-25T01:56:55.986Z,1.06
2022-11-25T01:59:23.119Z,1.06
2022-11-25T02:01:50.034Z,1.01
2022-11-25T02:04:18.587Z,1.03
2022-11-25T02:06:51.876Z,1.10
2022-11-25T02:09:19.224Z,1.11
2022-11-25T02:11:47.540Z,1.24
2022-11-25T02:14:15.424Z,1.24
2022-11-25T02:16:42.348Z,1.21
2022-11-25T02:19:15.594Z,1.18
2022-11-25T02:21:51.034Z,1.20
2022-11-25T02:24:47.450Z,1.23
2022-11-25T02:27:14.516Z,1.19
2022-11-25T02:29:43.483Z,1.17
2022-11-25T02:32:12.784Z,1.22
2022-11-25T02:34:48.580Z,1.28
2022-11-25T02:37:17.557Z,1.29
2022-11-25T02:39:44.765Z,1.32
2022-11-25T02:42:11.307Z,1.35
2022-11-25T02:44:37.937Z,1.35
2022-11-25T02:47:06.217Z,1.42
2022-11-25T02:49:32.572Z,1.47
2022-11-25T02:51:59.012Z,1.50
2022-11-25T02:54:25.372Z,1.52
2022-11-25T02:56:51.822Z,1.53
2022-11-25T02:59:18.292Z,1.52
2022-11-25T03:01:44.807Z,1.55
2022-11-25T03:04:11.284Z,1.59
2022-11-25T03:06:37.670Z,1.28
2022-11-25T03:09:05.148Z,0.94
2022-11-25T03:12:03.761Z,0.87
2022-11-25T03:14:30.205Z,1.13
2022-11-25T03:16:56.656Z,1.00
2022-11-25T03:19:23.187Z,0.91
2022-11-25T03:21:49.557Z,0.84
2022-11-25T03:24:15.916Z,0.80
2022-11-25T03:26:42.370Z,0.74
2022-11-25T03:29:08.839Z,0.77
2022-11-25T03:31:35.321Z,0.78
2022-11-25T03:34:02.560Z,0.75
2022-11-25T03:36:29.000Z,0.72
2022-11-25T03:38:55.360Z,0.75
2022-11-25T03:41:21.759Z,0.73
2022-11-25T03:43:49.000Z,0.68
2022-11-25T03:46:15.826Z,0.65
2022-11-25T03:48:42.758Z,0.70
2022-11-25T03:51:09.201Z,0.85
2022-11-25T03:53:35.900Z,0.88
2022-11-25T03:56:02.329Z,0.78
2022-11-25T03:58:28.725Z,0.75
2022-11-25T04:00:55.197Z,0.75
2022-11-25T04:03:21.777Z,0.72
2022-11-25T04:05:48.319Z,0.72
2022-11-25T04:08:14.802Z,0.72
2022-11-25T04:10:41.237Z,0.71
2022-11-25T04:13:07.639Z,0.69
2022-11-25T04:15:34.142Z,0.74
2022-11-25T04:18:00.533Z,0.91
2022-11-25T04:20:27.482Z,0.82
2022-11-25T04:22:53.845Z,0.76
2022-11-25T04:25:20.324Z,0.73
2022-11-25T04:27:46.966Z,0.71
2022-11-25T04:30:13.463Z,0.67
2022-11-25T04:32:40.081Z,0.67
2022-11-25T04:35:07.518Z,0.71
2022-11-25T04:37:33.936Z,0.88
2022-11-25T04:40:02.307Z,0.87
2022-11-25T04:42:33.364Z,0.77
2022-11-25T04:45:21.989Z,0.73
2022-11-25T04:47:48.757Z,0.70
2022-11-25T04:50:18.758Z,0.63
2022-11-25T04:52:45.262Z,0.59
2022-11-25T04:55:11.935Z,0.64
2022-11-25T04:57:38.296Z,0.84
2022-11-25T05:00:05.536Z,0.73
2022-11-25T05:02:32.106Z,0.71
2022-11-25T05:04:58.838Z,0.60
2022-11-25T05:07:28.050Z,0.56
2022-11-25T05:09:54.870Z,0.60
2022-11-25T05:12:22.830Z,0.54
2022-11-25T05:14:49.426Z,0.71
2022-11-25T05:17:20.273Z,0.74
2022-11-25T05:19:50.317Z,0.65
2022-11-25T05:22:18.310Z,0.66
2022-11-25T05:24:44.916Z,0.64
2022-11-25T05:27:11.642Z,0.65
2022-11-25T05:29:38.388Z,0.66
2022-11-25T05:32:06.752Z,0.56
2022-11-25T05:34:33.302Z,0.51
2022-11-25T05:36:59.980Z,0.60
2022-11-25T05:39:28.357Z,0.51
2022-11-25T05:41:56.693Z,0.51
2022-11-25T05:44:24.702Z,0.48
2022-11-25T05:46:51.380Z,0.52
2022-11-25T05:49:18.230Z,0.55
2022-11-25T05:51:44.957Z,0.73
2022-11-25T05:54:11.820Z,0.76
2022-11-25T05:56:38.887Z,0.73
2022-11-25T05:59:05.411Z,0.72
2022-11-25T06:01:32.257Z,0.69
2022-11-25T06:04:02.391Z,0.64
2022-11-25T06:06:29.325Z,0.63
2022-11-25T06:08:56.070Z,0.66
2022-11-25T06:11:24.794Z,0.74
2022-11-25T06:13:51.371Z,0.81
2022-11-25T06:16:19.314Z,0.76
2022-11-25T06:18:45.891Z,0.71
2022-11-25T06:21:12.425Z,0.67
2022-11-25T06:23:39.278Z,0.64
2022-11-25T06:26:06.933Z,0.60
2022-11-25T06:28:33.840Z,0.55
2022-11-25T06:31:08.771Z,0.51
2022-11-25T06:33:37.188Z,0.54
2022-11-25T06:36:04.873Z,0.68
2022-11-25T06:38:31.420Z,0.72
2022-11-25T06:41:04.784Z,0.72
2022-11-25T06:43:31.844Z,0.74
2022-11-25T06:46:05.641Z,0.77
2022-11-25T06:48:32.191Z,0.75
2022-11-25T06:51:03.081Z,0.80
2022-11-25T06:53:32.035Z,0.78
2022-11-25T06:56:01.817Z,0.84
2022-11-25T06:58:36.713Z,0.91
2022-11-25T07:01:04.925Z,0.91
2022-11-25T07:03:31.367Z,1.00
2022-11-25T07:05:58.402Z,0.99
2022-11-25T07:08:32.412Z,1.06
2022-11-25T07:11:20.593Z,1.09
2022-11-25T07:13:47.804Z,1.14
2022-11-25T07:16:14.607Z,1.18
2022-11-25T07:18:41.404Z,1.08
2022-11-25T07:21:18.372Z,0.93
2022-11-25T07:23:45.721Z,0.86
2022-11-25T07:26:13.430Z,0.94
2022-11-25T07:28:40.174Z,0.97
2022-11-25T07:31:28.626Z,0.70
2022-11-25T07:33:59.925Z,0.54
2022-11-25T07:36:26.858Z,0.69
2022-11-25T07:38:53.615Z,0.69
2022-11-25T07:41:21.316Z,0.56
2022-11-25T07:43:48.995Z,0.51
2022-11-25T07:46:25.037Z,0.47
2022-11-25T07:48:53.700Z,0.47
2022-11-25T07:51:20.060Z,0.42
2022-11-25T07:53:47.308Z,0.40
2022-11-25T07:56:16.383Z,0.43
2022-11-25T07:58:46.019Z,0.51
2022-11-25T08:01:13.268Z,0.47
2022-11-25T08:03:41.541Z,0.43
2022-11-25T08:06:09.265Z,0.48
2022-11-25T08:08:38.605Z,0.46
2022-11-25T08:11:08.697Z,0.47
2022-11-25T08:13:35.159Z,0.48
2022-11-25T08:16:01.611Z,0.50
2022-11-25T08:18:28.471Z,0.51
2022-11-25T08:21:02.117Z,0.49
2022-11-25T08:23:28.561Z,0.49
2022-11-25T08:25:55.175Z,0.57
2022-11-25T08:28:21.732Z,0.58
2022-11-25T08:30:49.409Z,0.58
2022-11-25T08:33:15.948Z,0.57
2022-11-25T08:35:42.336Z,0.74
2022-11-25T08:38:15.662Z,0.82
2022-11-25T08:40:46.702Z,0.76
2022-11-25T08:43:13.397Z,0.73
2022-11-25T08:45:40.360Z,0.71
2022-11-25T08:48:06.885Z,0.84
2022-11-25T08:50:33.357Z,0.86
2022-11-25T08:53:00.585Z,0.80
2022-11-25T08:55:27.391Z,0.74
2022-11-25T08:57:54.383Z,0.77
2022-11-25T09:00:21.333Z,0.76
2022-11-25T09:02:48.262Z,0.93
2022-11-25T09:05:15.777Z,0.98
2022-11-25T09:07:42.678Z,0.88
2022-11-25T09:10:13.342Z,0.87
2022-11-25T09:12:39.709Z,0.87
2022-11-25T09:15:06.391Z,0.85
2022-11-25T09:17:35.441Z,0.82
2022-11-25T09:20:01.800Z,0.80
2022-11-25T09:22:28.179Z,0.88
2022-11-25T09:24:54.617Z,1.08
2022-11-25T09:27:21.089Z,0.98
2022-11-25T09:29:47.514Z,0.93
2022-11-25T09:32:15.669Z,0.89
2022-11-25T09:34:42.083Z,0.91
2022-11-25T09:37:08.460Z,1.09
2022-11-25T09:39:35.689Z,1.09
2022-11-25T09:42:39.285Z,1.06
2022-11-25T09:45:43.262Z,0.99
2022-11-25T09:48:12.550Z,1.21
2022-11-25T09:50:48.004Z,1.12
2022-11-25T09:53:34.652Z,1.02
2022-11-25T09:56:03.256Z,1.01
2022-11-25T09:58:35.311Z,1.20
2022-11-25T10:01:06.258Z,1.11
2022-11-25T10:03:38.989Z,0.97
2022-11-25T10:06:14.898Z,0.95
2022-11-25T10:08:46.594Z,1.04
2022-11-25T10:11:19.150Z,1.15
2022-11-25T10:13:49.513Z,1.00
2022-11-25T10:16:44.957Z,0.95
2022-11-25T10:19:36.902Z,0.99
2022-11-25T10:22:12.205Z,1.11
2022-11-25T10:24:41.417Z,1.02
2022-11-25T10:27:15.008Z,0.90
2022-11-25T10:29:42.069Z,0.84
2022-11-25T10:32:22.225Z,1.09
2022-11-25T10:34:54.163Z,1.03
2022-11-25T10:37:29.277Z,0.99
2022-11-25T10:39:55.719Z,0.92
2022-11-25T10:42:23.415Z,1.03
2022-11-25T10:44:49.963Z,1.13
2022-11-25T10:47:31.723Z,1.04
2022-11-25T10:50:01.316Z,0.95
2022-11-25T10:52:34.483Z,0.97
2022-11-25T10:55:15.001Z,1.14
2022-11-25T10:57:41.880Z,1.01
2022-11-25T11:00:23.750Z,1.01
2022-11-25T11:02:50.248Z,1.17
2022-11-25T11:05:23.331Z,1.37
2022-11-25T11:08:08.521Z,1.51
2022-11-25T11:10:36.948Z,1.64
2022-11-25T11:13:04.690Z,1.74
2022-11-25T11:15:46.642Z,1.73
2022-11-25T11:18:18.913Z,1.80
2022-11-25T11:20:47.228Z,1.81
2022-11-25T11:23:14.270Z,1.84
2022-11-25T11:25:41.852Z,1.91
2022-11-25T11:28:33.256Z,1.93
2022-11-25T11:31:04.345Z,1.94
2022-11-25T11:33:50.072Z,1.97
2022-11-25T11:36:22.641Z,1.91
2022-11-25T11:39:01.540Z,1.95
2022-11-25T11:41:39.934Z,1.91
2022-11-25T11:44:17.624Z,1.90
2022-11-25T11:46:53.893Z,1.91
2022-11-25T11:49:20.361Z,1.95
2022-11-25T11:52:01.448Z,1.88
2022-11-25T11:54:49.997Z,1.88
2022-11-25T11:57:16.340Z,1.86
2022-11-25T11:59:46.193Z,1.88
2022-11-25T12:02:22.386Z,1.79
2022-11-25T12:04:55.986Z,1.71
2022-11-25T12:07:44.809Z,1.70
2022-11-25T12:10:20.194Z,1.69
2022-11-25T12:12:57.845Z,1.68
2022-11-25T12:15:42.822Z,1.71
2022-11-25T12:18:32.594Z,1.73
2022-11-25T12:21:01.981Z,1.73
2022-11-25T12:23:37.377Z,1.71
2022-11-25T12:26:13.076Z,1.71
2022-11-25T12:28:43.934Z,1.71
2022-11-25T12:31:18.195Z,1.68
2022-11-25T12:33:49.278Z,1.66
2022-11-25T12:36:18.630Z,1.73
2022-11-25T12:38:54.523Z,1.76
2022-11-25T12:41:20.889Z,1.76
2022-11-25T12:43:47.249Z,1.74
2022-11-25T12:46:19.205Z,1.76
2022-11-25T12:48:47.321Z,1.73
2022-11-25T12:51:28.728Z,1.74
2022-11-25T12:53:58.190Z,1.74
2022-11-25T12:56:27.759Z,1.76
2022-11-25T12:59:09.991Z,1.80
2022-11-25T13:01:47.828Z,1.83
2022-11-25T13:04:26.692Z,1.86
2022-11-25T13:06:53.096Z,1.89
2022-11-25T13:09:19.442Z,1.97
2022-11-25T13:11:48.125Z,1.96
2022-11-25T13:14:32.821Z,1.99
2022-11-25T13:17:00.504Z,1.88
2022-11-25T13:19:27.403Z,1.81
2022-11-25T13:22:02.521Z,1.73
2022-11-25T13:24:43.878Z,1.71
2022-11-25T13:27:28.876Z,1.70
2022-11-25T13:29:55.495Z,1.64
2022-11-25T13:32:26.032Z,1.63
2022-11-25T13:35:12.356Z,1.58
2022-11-25T13:37:42.434Z,1.48
2022-11-25T13:40:24.025Z,1.46
2022-11-25T13:42:51.684Z,1.39
2022-11-25T13:45:38.208Z,1.27
2022-11-25T13:48:06.908Z,1.18
2022-11-25T13:50:55.294Z,1.18
2022-11-25T13:53:22.715Z,1.17
2022-11-25T13:55:55.043Z,1.13
2022-11-25T13:58:25.852Z,1.11
2022-11-25T14:00:59.876Z,1.03
2022-11-25T14:03:29.378Z,1.01
2022-11-25T14:06:05.417Z,0.91
2022-11-25T14:08:37.969Z,0.91
2022-11-25T14:11:07.097Z,0.91
2022-11-25T14:13:52.282Z,0.91
2022-11-25T14:16:37.480Z,0.87
2022-11-25T14:19:43.373Z,0.87
2022-11-25T14:22:14.981Z,0.82
2022-11-25T14:24:59.834Z,0.73
2022-11-25T14:27:27.617Z,0.68
2022-11-25T14:29:54.145Z,0.59
2022-11-25T14:32:43.981Z,0.54
2022-11-25T14:35:14.572Z,0.59
2022-11-25T14:37:44.804Z,0.56
2022-11-25T14:40:17.374Z,0.55
2022-11-25T14:42:49.082Z,0.54
2022-11-25T14:45:21.707Z,0.52
2022-11-25T14:47:48.331Z,0.53
2022-11-25T14:53:05.296Z,0.64
2022-11-25T14:55:31.946Z,0.65
2022-11-25T14:57:58.416Z,0.64
2022-11-25T15:00:25.045Z,0.66
2022-11-25T15:02:53.329Z,0.65
2022-11-25T15:05:21.240Z,0.62
2022-11-25T15:07:56.756Z,0.57
2022-11-25T15:10:41.578Z,0.59
2022-11-25T15:13:34.662Z,0.55
2022-11-25T15:16:14.800Z,0.56
2022-11-25T15:18:51.853Z,0.56
2022-11-25T15:21:20.714Z,0.53
2022-11-25T15:23:47.202Z,0.52
2022-11-25T15:26:19.154Z,0.55
2022-11-25T15:28:46.022Z,0.56
2022-11-25T15:31:17.460Z,0.58
2022-11-25T15:33:44.820Z,0.58
2022-11-25T15:36:11.686Z,0.59
2022-11-25T15:38:41.531Z,0.61
2022-11-25T15:41:34.154Z,0.65
2022-11-25T15:44:05.534Z,0.14
2022-11-25T15:46:33.823Z,0.01
2022-11-25T15:49:02.035Z,0.20
2022-11-25T15:51:31.641Z,0.30
2022-11-25T15:54:03.316Z,0.36
2022-11-25T15:56:32.223Z,0.40
2022-11-25T15:59:01.667Z,0.42
2022-11-25T16:01:29.295Z,0.49
2022-11-25T16:04:09.333Z,0.51
2022-11-25T16:06:35.764Z,0.54
2022-11-25T16:09:03.884Z,0.62
2022-11-25T16:11:33.612Z,0.66
2022-11-25T16:14:24.093Z,0.72
2022-11-25T16:16:50.883Z,0.40
2022-11-25T16:19:19.012Z,0.32
2022-11-25T16:21:53.229Z,0.36
2022-11-25T16:24:38.667Z,0.39
2022-11-25T16:27:07.114Z,0.22
2022-11-25T16:29:35.643Z,0.38
2022-11-25T16:32:13.001Z,0.27
2022-11-25T16:34:39.755Z,0.14
2022-11-25T16:37:06.341Z,0.24
2022-11-25T16:39:37.036Z,0.16
2022-11-25T16:42:04.586Z,-0.04
2022-11-25T16:44:32.874Z,0.14
2022-11-25T16:46:59.551Z,0.13
2022-11-25T16:49:26.609Z,0.00
2022-11-25T16:51:53.169Z,0.15
2022-11-25T16:54:20.209Z,0.13
2022-11-25T16:56:48.301Z,0.09
2022-11-25T16:59:25.572Z,0.27
2022-11-25T17:01:52.824Z,0.23
2022-11-25T17:04:19.404Z,0.22
2022-11-25T17:07:09.566Z,0.34
2022-11-25T17:09:33.166Z,0.22
2022-11-25T17:11:59.595Z,0.33
2022-11-25T17:14:30.894Z,0.42
2022-11-25T17:16:58.439Z,0.33
2022-11-25T17:19:25.090Z,0.47
2022-11-25T17:21:51.658Z,0.53
2022-11-25T17:24:22.237Z,0.44
2022-11-25T17:26:50.783Z,0.32
2022-11-25T17:29:18.341Z,0.50
2022-11-25T17:31:46.711Z,0.37
2022-11-25T17:34:15.305Z,0.23
2022-11-25T17:36:42.518Z,0.37
2022-11-25T17:39:10.546Z,0.23
2022-11-25T17:41:40.781Z,0.21
2022-11-25T17:44:10.626Z,0.37
2022-11-25T17:46:37.038Z,0.24
2022-11-25T17:49:03.445Z,0.29
2022-11-25T17:51:29.871Z,0.38
2022-11-25T17:53:56.308Z,0.28
2022-11-25T17:56:28.313Z,0.37
2022-11-25T17:58:55.443Z,0.40
2022-11-25T18:01:21.939Z,0.31
2022-11-25T18:03:53.025Z,0.45
2022-11-25T18:06:19.806Z,0.40
2022-11-25T18:08:46.182Z,0.27
2022-11-25T18:11:16.872Z,0.46
2022-11-25T18:13:44.422Z,0.37
2022-11-25T18:16:13.091Z,0.30
2022-11-25T18:18:39.550Z,0.47
2022-11-25T18:21:06.007Z,0.36
2022-11-25T18:23:32.430Z,0.41
2022-11-25T18:26:00.988Z,0.50
2022-11-25T18:28:29.551Z,0.44
2022-11-25T18:31:01.529Z,0.45
2022-11-25T18:33:28.018Z,0.45
2022-11-25T18:35:54.467Z,0.41
2022-11-25T18:38:20.905Z,0.49
2022-11-25T18:40:53.086Z,0.47
2022-11-25T18:43:25.091Z,0.32
2022-11-25T18:45:52.629Z,0.46
2022-11-25T18:48:20.577Z,0.47
2022-11-25T18:50:49.174Z,0.33
2022-11-25T18:53:15.953Z,0.48
2022-11-25T18:55:42.920Z,0.29
2022-11-25T18:58:14.465Z,0.20
2022-11-25T19:00:40.949Z,0.38
2022-11-25T19:03:13.764Z,0.14
2022-11-25T19:05:40.204Z,0.05
2022-11-25T19:08:06.642Z,0.23
2022-11-25T19:10:37.364Z,0.09
2022-11-25T19:13:07.102Z,0.17
2022-11-25T19:15:35.056Z,0.40
2022-11-25T19:18:02.515Z,0.37
2022-11-25T19:20:30.310Z,0.38
2022-11-25T19:23:00.833Z,0.50
2022-11-25T19:25:28.008Z,0.40
2022-11-25T19:27:57.112Z,0.34
2022-11-25T19:30:25.114Z,0.43
2022-11-25T19:32:54.121Z,0.43
2022-11-25T19:35:24.917Z,0.47
2022-11-25T19:37:51.553Z,0.51
2022-11-25T19:40:19.528Z,0.47
2022-11-25T19:42:48.220Z,0.58
2022-11-25T19:45:19.093Z,0.54
2022-11-25T19:47:46.692Z,0.39
2022-11-25T19:50:20.842Z,0.55
2022-11-25T19:52:47.445Z,0.48
2022-11-25T19:55:15.149Z,0.32
2022-11-25T19:57:41.699Z,0.34
2022-11-25T20:00:09.188Z,0.46
2022-11-25T20:02:35.733Z,0.19
2022-11-25T20:05:03.428Z,0.08
2022-11-25T20:07:32.849Z,0.27
2022-11-25T20:10:06.609Z,0.26
2022-11-25T20:12:33.080Z,0.16
2022-11-25T20:14:59.529Z,0.23
2022-11-25T20:17:28.539Z,0.36
2022-11-25T20:19:57.198Z,0.22
2022-11-25T20:22:29.018Z,0.15
2022-11-25T20:24:55.754Z,0.38
2022-11-25T20:27:26.289Z,0.34
2022-11-25T20:29:52.802Z,0.28
2022-11-25T20:32:25.826Z,0.34
2022-11-25T20:34:52.194Z,0.45
2022-11-25T20:37:23.756Z,0.33
2022-11-25T20:39:51.954Z,0.20
2022-11-25T20:42:18.773Z,0.37
2022-11-25T20:44:45.649Z,0.30
2022-11-25T20:47:21.851Z,0.20
2022-11-25T20:49:48.524Z,0.22
2022-11-25T20:52:17.929Z,0.31
2022-11-25T20:54:44.327Z,0.17
2022-11-25T20:57:10.772Z,0.08
2022-11-25T20:59:37.193Z,0.23
2022-11-25T21:02:03.810Z,0.24
2022-11-25T21:04:30.296Z,0.13
2022-11-25T21:06:56.817Z,0.10
2022-11-25T21:09:25.119Z,0.26
2022-11-25T21:11:51.594Z,0.10
2022-11-25T21:14:19.365Z,0.06
2022-11-25T21:16:46.815Z,0.25
2022-11-25T21:19:13.337Z,0.25
2022-11-25T21:21:41.697Z,0.17
2022-11-25T21:24:15.753Z,0.16
2022-11-25T21:26:42.158Z,0.33
2022-11-25T21:29:13.582Z,0.34
2022-11-25T21:31:41.347Z,0.28
2022-11-25T21:34:09.711Z,0.37
2022-11-25T21:36:36.297Z,0.33
2022-11-25T21:39:07.969Z,0.16
2022-11-25T21:41:35.474Z,0.17
2022-11-25T21:44:04.380Z,0.29
2022-11-25T21:46:30.865Z,0.35
2022-11-25T21:48:57.289Z,0.37
2022-11-25T21:51:27.261Z,0.39
2022-11-25T21:53:54.025Z,0.47
2022-11-25T21:56:25.003Z,0.41
2022-11-25T21:58:51.585Z,0.37
2022-11-25T22:01:18.213Z,0.48
2022-11-25T22:03:44.609Z,0.51
2022-11-25T22:06:29.682Z,0.53
2022-11-25T22:08:56.772Z,0.65
2022-11-25T22:11:31.300Z,0.51
2022-11-25T22:13:57.977Z,0.48
2022-11-25T22:16:34.709Z,0.47
2022-11-25T22:19:01.304Z,0.60
2022-11-25T22:21:27.798Z,0.51
2022-11-25T22:23:54.267Z,0.46
2022-11-25T22:26:24.065Z,0.59
2022-11-25T22:28:51.570Z,0.67
2022-11-25T22:31:19.183Z,0.72
2022-11-25T22:33:46.795Z,0.81
2022-11-25T22:36:25.037Z,0.77
2022-11-25T22:38:51.393Z,0.67
2022-11-25T22:41:17.796Z,0.65
2022-11-25T22:43:47.157Z,0.77
2022-11-25T22:46:13.602Z,0.80
2022-11-25T22:48:40.226Z,0.79
2022-11-25T22:51:14.118Z,0.76
2022-11-25T22:53:40.650Z,0.86
2022-11-25T22:56:15.164Z,0.72
2022-11-25T22:58:41.627Z,0.54
2022-11-25T23:01:08.946Z,0.50
2022-11-25T23:03:35.440Z,0.66
2022-11-25T23:06:03.238Z,0.67
2022-11-25T23:08:31.625Z,0.55
2022-11-25T23:10:59.776Z,0.52
2022-11-25T23:13:26.269Z,0.62
2022-11-25T23:15:54.240Z,0.72
2022-11-25T23:18:25.957Z,0.71
2022-11-25T23:20:52.417Z,0.70
2022-11-25T23:23:28.848Z,0.79
2022-11-25T23:25:55.924Z,0.83
2022-11-25T23:28:22.829Z,0.91
2022-11-25T23:30:51.243Z,0.90
2022-11-25T23:33:20.881Z,0.99
2022-11-25T23:35:47.408Z,1.06
2022-11-25T23:38:18.159Z,1.01
2022-11-25T23:40:44.573Z,0.82
2022-11-25T23:43:14.947Z,0.82
2022-11-25T23:45:47.796Z,0.84
2022-11-25T23:48:14.262Z,0.93
2022-11-25T23:50:40.804Z,0.99
2022-11-25T23:53:10.729Z,0.93
2022-11-25T23:55:38.393Z,0.65
2022-11-25T23:58:13.952Z,0.44
